createdAt,value
2022-09-28T00:04:15.928Z,0.52
2022-09-28T00:09:17.937Z,2.72
2022-09-28T00:14:20.644Z,2.40
2022-09-28T00:19:22.525Z,0.82
2022-09-28T00:24:27.717Z,0.40
2022-09-28T00:29:34.672Z,0.40
2022-09-28T00:34:41.278Z,4.60
2022-09-28T00:39:43.507Z,2.17
2022-09-28T00:44:56.186Z,1.27
2022-09-28T00:50:03.603Z,1.70
2022-09-28T00:55:11.617Z,1.92
2022-09-28T01:00:14.576Z,0.70
2022-09-28T01:05:18.174Z,0.65
2022-09-28T01:10:19.915Z,0.40
2022-09-28T01:15:23.185Z,2.38
2022-09-28T01:20:41.283Z,1.50
2022-09-28T01:26:10.313Z,1.33
2022-09-28T01:31:17.430Z,0.40
2022-09-28T01:36:25.907Z,1.05
2022-09-28T01:41:31.724Z,0.20
2022-09-28T01:46:42.200Z,1.90
2022-09-28T01:51:53.686Z,1.13
2022-09-28T01:57:05.796Z,1.48
2022-09-28T02:02:16.911Z,0.43
2022-09-28T02:07:24.342Z,0.22
2022-09-28T02:12:43.373Z,1.75
2022-09-28T02:23:01.829Z,0.20
2022-09-28T02:28:10.014Z,0.38
2022-09-28T02:33:51.685Z,0.40
2022-09-28T02:38:54.253Z,0.10
2022-09-28T02:44:26.360Z,0.25
2022-09-28T02:49:37.114Z,0.75
2022-09-28T02:55:16.567Z,1.10
2022-09-28T03:00:21.702Z,0.53
2022-09-28T03:05:37.577Z,0.43
2022-09-28T03:10:56.219Z,0.75
2022-09-28T03:16:15.603Z,1.08
2022-09-28T03:21:19.209Z,0.55
2022-09-28T03:26:20.832Z,0.80
2022-09-28T03:31:24.783Z,1.48
2022-09-28T03:36:26.825Z,11.65
2022-09-28T03:41:28.850Z,1.70
2022-09-28T03:46:30.754Z,1.35
2022-09-28T03:51:37.781Z,4.13
2022-09-28T03:56:40.739Z,0.88
2022-09-28T04:01:42.414Z,0.30
2022-09-28T04:06:44.707Z,2.22
2022-09-28T04:12:02.902Z,1.10
2022-09-28T04:17:07.238Z,0.40
2022-09-28T04:22:09.569Z,0.95
2022-09-28T04:27:31.517Z,0.13
2022-09-28T04:32:35.190Z,0.35
2022-09-28T04:37:36.999Z,0.50
2022-09-28T04:42:38.678Z,0.65
2022-09-28T04:47:40.353Z,0.20
2022-09-28T04:52:44.876Z,1.13
2022-09-28T04:57:46.622Z,0.15
2022-09-28T05:02:48.675Z,1.70
2022-09-28T05:08:26.231Z,2.53
2022-09-28T05:13:28.956Z,0.95
2022-09-28T05:18:31.345Z,1.42
2022-09-28T05:23:37.774Z,0.90
2022-09-28T05:28:39.738Z,2.42
2022-09-28T05:33:59.971Z,2.33
2022-09-28T05:39:03.979Z,0.60
2022-09-28T05:44:05.969Z,1.88
2022-09-28T05:49:07.621Z,0.95
2022-09-28T05:54:09.321Z,1.70
2022-09-28T05:59:16.627Z,2.08
2022-09-28T06:04:18.586Z,1.65
2022-09-28T06:09:26.234Z,1.38
2022-09-28T06:14:36.432Z,3.10
2022-09-28T06:19:39.191Z,0.88
2022-09-28T06:25:19.656Z,0.60
2022-09-28T06:30:22.366Z,1.27
2022-09-28T06:35:26.063Z,4.45
2022-09-28T06:40:28.494Z,0.65
2022-09-28T06:45:30.847Z,1.02
2022-09-28T06:50:46.360Z,1.60
2022-09-28T06:56:02.587Z,1.92
2022-09-28T07:01:05.897Z,2.13
2022-09-28T07:06:18.316Z,1.50
2022-09-28T07:11:41.697Z,3.97
2022-09-28T07:17:10.132Z,1.58
2022-09-28T07:22:08.100Z,2.10
2022-09-28T07:27:10.191Z,5.15
2022-09-28T07:37:59.514Z,2.67
2022-09-28T07:43:07.901Z,3.05
2022-09-28T07:48:09.769Z,3.38
2022-09-28T07:53:31.931Z,2.22
2022-09-28T07:59:09.021Z,2.97
2022-09-28T08:04:33.957Z,4.82
2022-09-28T08:09:35.902Z,6.13
2022-09-28T08:14:56.588Z,6.53
2022-09-28T08:20:27.658Z,6.13
2022-09-28T08:25:29.661Z,8.48
2022-09-28T08:30:31.793Z,4.93
2022-09-28T08:36:01.638Z,4.80
2022-09-28T08:41:43.740Z,5.28
2022-09-28T08:47:05.708Z,3.03
2022-09-28T08:52:30.040Z,4.20
2022-09-28T08:58:10.828Z,4.13
2022-09-28T09:03:15.042Z,4.00
2022-09-28T09:08:25.950Z,3.50
2022-09-28T09:13:47.610Z,4.50
2022-09-28T09:19:16.411Z,6.45
2022-09-28T09:24:45.293Z,6.25
2022-09-28T09:29:56.261Z,3.33
2022-09-28T09:35:05.599Z,6.03
2022-09-28T09:40:44.774Z,17.63
2022-09-28T09:46:07.970Z,1.73
2022-09-28T09:51:45.070Z,5.97
2022-09-28T09:56:55.028Z,2.15
2022-09-28T10:02:28.688Z,0.73
2022-09-28T10:07:46.542Z,1.38
2022-09-28T10:12:52.332Z,0.45
2022-09-28T10:17:59.041Z,1.20
2022-09-28T10:23:33.845Z,0.95
2022-09-28T10:28:48.656Z,4.88
2022-09-28T10:33:53.253Z,5.32
2022-09-28T10:38:55.912Z,0.70
2022-09-28T10:44:08.878Z,1.60
2022-09-28T10:49:18.772Z,1.38
2022-09-28T10:54:31.536Z,5.65
2022-09-28T10:59:42.062Z,1.67
2022-09-28T11:05:01.802Z,1.00
2022-09-28T11:10:20.155Z,2.55
2022-09-28T11:15:27.729Z,2.05
2022-09-28T11:20:35.721Z,1.20
2022-09-28T11:25:41.194Z,2.13
2022-09-28T11:30:52.667Z,3.42
2022-09-28T11:36:13.576Z,3.28
2022-09-28T11:41:39.648Z,0.63
2022-09-28T11:47:08.382Z,1.05
2022-09-28T11:52:25.349Z,0.65
2022-09-28T11:57:32.372Z,2.75
2022-09-28T12:02:45.373Z,0.80
2022-09-28T12:07:59.005Z,2.08
2022-09-28T12:13:25.369Z,2.63
2022-09-28T12:18:30.446Z,1.15
2022-09-28T12:23:35.788Z,1.10
2022-09-28T12:28:53.457Z,1.73
2022-09-28T12:33:55.133Z,2.40
2022-09-28T12:39:40.830Z,0.80
2022-09-28T12:44:40.866Z,0.75
2022-09-28T12:55:36.114Z,1.08
2022-09-28T13:01:02.904Z,2.28
2022-09-28T13:06:33.657Z,2.35
2022-09-28T13:11:51.884Z,1.75
2022-09-28T13:17:16.450Z,0.52
2022-09-28T13:22:30.173Z,0.98
2022-09-28T13:27:40.668Z,2.10
2022-09-28T13:32:44.121Z,2.30
2022-09-28T13:37:46.208Z,1.05
2022-09-28T13:42:47.718Z,0.85
2022-09-28T13:48:20.520Z,0.70
2022-09-28T13:53:25.342Z,3.25
2022-09-28T13:58:43.420Z,1.15
2022-09-28T14:04:16.569Z,0.65
2022-09-28T14:09:41.594Z,1.85
2022-09-28T14:14:51.672Z,0.75
2022-09-28T14:20:04.832Z,0.82
2022-09-28T14:25:30.402Z,0.63
2022-09-28T14:30:43.812Z,0.85
2022-09-28T14:36:02.140Z,0.77
2022-09-28T14:41:15.800Z,0.50
2022-09-28T14:46:17.485Z,0.38
2022-09-28T14:51:31.699Z,0.52
2022-09-28T14:56:39.196Z,2.88
2022-09-28T15:01:43.770Z,10.52
2022-09-28T15:06:50.540Z,0.52
2022-09-28T15:11:57.517Z,2.00
2022-09-28T15:17:02.899Z,0.95
2022-09-28T15:22:17.170Z,0.77
2022-09-28T15:27:19.479Z,0.88
2022-09-28T15:32:25.864Z,2.15
2022-09-28T15:37:39.629Z,1.58
2022-09-28T15:42:44.716Z,0.57
2022-09-28T15:47:46.751Z,0.90
2022-09-28T15:52:59.086Z,0.40
2022-09-28T15:58:21.372Z,0.85
2022-09-28T16:03:29.817Z,0.38
2022-09-28T16:08:48.989Z,1.30
2022-09-28T16:13:56.169Z,0.50
2022-09-28T16:19:00.785Z,0.80
2022-09-28T16:24:03.321Z,1.30
2022-09-28T16:29:25.778Z,2.60
2022-09-28T16:34:29.068Z,2.70
2022-09-28T16:39:30.869Z,1.98
2022-09-28T16:44:35.831Z,1.00
2022-09-28T16:49:39.789Z,1.27
2022-09-28T16:54:59.908Z,2.10
2022-09-28T17:00:02.178Z,1.80
2022-09-28T17:05:06.482Z,1.13
2022-09-28T17:10:49.792Z,1.35
2022-09-28T17:15:55.492Z,1.60
2022-09-28T17:20:59.029Z,1.60
2022-09-28T17:26:02.051Z,7.22
2022-09-28T17:31:04.191Z,15.48
2022-09-28T17:36:06.762Z,7.88
2022-09-28T17:41:20.492Z,6.93
2022-09-28T17:46:30.684Z,6.20
2022-09-28T17:51:35.154Z,2.22
2022-09-28T17:56:36.904Z,2.58
2022-09-28T18:01:39.697Z,2.08
2022-09-28T18:06:42.583Z,4.78
2022-09-28T18:11:46.056Z,4.25
2022-09-28T18:16:48.517Z,5.18
2022-09-28T18:21:50.087Z,15.07
2022-09-28T18:26:51.720Z,18.73
2022-09-28T18:31:53.308Z,15.80
2022-09-28T18:36:55.168Z,12.45
2022-09-28T18:41:57.195Z,16.67
2022-09-28T18:47:00.167Z,11.90
2022-09-28T18:52:01.898Z,7.05
2022-09-28T18:57:05.313Z,5.93
2022-09-28T19:02:07.061Z,2.55
2022-09-28T19:07:08.998Z,1.83
2022-09-28T19:12:11.909Z,2.70
2022-09-28T19:17:13.699Z,2.50
2022-09-28T19:22:15.500Z,2.10
2022-09-28T19:27:17.458Z,1.13
2022-09-28T19:32:19.188Z,0.57
2022-09-28T19:37:20.986Z,4.20
2022-09-28T19:42:22.588Z,0.68
2022-09-28T19:47:24.396Z,2.10
2022-09-28T19:52:26.167Z,0.82
2022-09-28T19:57:30.522Z,3.55
2022-09-28T20:02:34.073Z,2.40
2022-09-28T20:07:36.751Z,1.25
2022-09-28T20:12:38.746Z,2.45
2022-09-28T20:17:40.484Z,2.30
2022-09-28T20:22:43.969Z,0.82
2022-09-28T20:27:46.027Z,0.30
2022-09-28T20:32:49.679Z,0.75
2022-09-28T20:37:51.388Z,0.80
2022-09-28T20:42:52.969Z,0.38
2022-09-28T20:47:54.521Z,0.90
2022-09-28T20:52:56.229Z,2.20
2022-09-28T20:58:02.329Z,1.92
2022-09-28T21:03:04.035Z,4.28
2022-09-28T21:08:05.838Z,4.25
2022-09-28T21:13:08.752Z,3.92
2022-09-28T21:18:10.341Z,4.75
2022-09-28T21:23:12.155Z,0.73
2022-09-28T21:28:15.693Z,1.35
2022-09-28T21:33:17.383Z,0.50
2022-09-28T21:38:19.019Z,0.70
2022-09-28T21:43:20.599Z,0.70
2022-09-28T21:48:24.013Z,0.90
2022-09-28T21:53:29.004Z,0.68
2022-09-28T21:58:33.321Z,1.65
2022-09-28T22:03:36.445Z,0.57
2022-09-28T22:08:39.044Z,1.27
2022-09-28T22:13:41.617Z,1.25
2022-09-28T22:18:43.955Z,1.33
2022-09-28T22:23:45.953Z,1.15
2022-09-28T22:28:53.000Z,1.30
2022-09-28T22:33:55.413Z,0.98
2022-09-28T22:38:58.242Z,0.52
2022-09-28T22:44:00.384Z,1.48
2022-09-28T22:49:02.173Z,0.80
2022-09-28T22:54:04.043Z,3.15
2022-09-28T22:59:05.709Z,0.38
2022-09-28T23:04:09.134Z,0.57
2022-09-28T23:09:10.796Z,1.48
2022-09-28T23:14:12.685Z,0.60
2022-09-28T23:19:14.373Z,0.55
2022-09-28T23:24:16.383Z,1.08
2022-09-28T23:29:18.147Z,1.25
2022-09-28T23:34:19.886Z,1.15
2022-09-28T23:39:21.649Z,0.88
2022-09-28T23:44:23.580Z,0.47
2022-09-28T23:49:25.364Z,0.60
2022-09-28T23:54:27.021Z,0.93
2022-09-28T23:59:28.629Z,0.63
